createdAt,value
2022-11-02T00:01:27.279Z,101817.91
2022-11-02T00:03:55.764Z,101834.06
2022-11-02T00:06:23.948Z,101821.59
2022-11-02T00:08:53.569Z,101825.84
2022-11-02T00:11:21.758Z,101828.97
2022-11-02T00:13:50.050Z,101824.16
2022-11-02T00:16:20.839Z,101830.81
2022-11-02T00:18:52.560Z,101828.97
2022-11-02T00:21:22.709Z,101829.28
2022-11-02T00:23:51.291Z,101834.38
2022-11-02T00:26:21.242Z,101838.34
2022-11-02T00:28:49.660Z,101836.94
2022-11-02T00:31:18.084Z,101842.31
2022-11-02T00:33:46.296Z,101841.31
2022-11-02T00:36:14.704Z,101837.53
2022-11-02T00:38:42.925Z,101834.25
2022-11-02T00:41:12.909Z,101834.41
2022-11-02T00:43:42.700Z,101837.09
2022-11-02T00:46:10.917Z,101834.25
2022-11-02T00:48:39.350Z,101835.41
2022-11-02T00:51:07.848Z,101836.94
2022-11-02T00:53:36.405Z,101833.84
2022-11-02T00:56:04.997Z,101840.06
2022-11-02T00:58:34.113Z,101837.53
2022-11-02T01:01:07.304Z,101840.50
2022-11-02T01:03:36.921Z,101846.00
2022-11-02T01:06:10.191Z,101846.56
2022-11-02T01:08:39.157Z,101840.22
2022-11-02T01:11:12.359Z,101845.31
2022-11-02T01:13:40.666Z,101849.13
2022-11-02T01:16:11.421Z,101851.81
2022-11-02T01:18:40.270Z,101856.34
2022-11-02T01:21:10.117Z,101857.47
2022-11-02T01:23:39.629Z,101828.75
2022-11-02T01:26:10.069Z,101848.84
2022-11-02T01:28:39.359Z,101855.06
2022-11-02T01:31:08.016Z,101865.81
2022-11-02T01:33:38.590Z,101859.03
2022-11-02T01:36:08.350Z,101855.94
2022-11-02T01:38:36.646Z,101855.50
2022-11-02T01:41:04.916Z,101855.50
2022-11-02T01:43:35.423Z,101856.22
2022-11-02T01:46:08.327Z,101849.13
2022-11-02T01:48:45.426Z,101860.03
2022-11-02T01:51:20.582Z,101855.78
2022-11-02T01:53:52.348Z,101849.69
2022-11-02T01:59:01.752Z,101851.94
2022-11-02T02:01:31.246Z,101849.41
2022-11-02T02:04:02.680Z,101850.25
2022-11-02T02:06:35.762Z,101854.19
2022-11-02T02:09:08.673Z,101842.34
2022-11-02T02:11:39.005Z,101843.72
2022-11-02T02:14:10.232Z,101845.56
2022-11-02T02:16:58.614Z,101848.81
2022-11-02T02:19:39.840Z,101845.84
2022-11-02T02:22:21.589Z,101848.56
2022-11-02T02:24:55.510Z,101837.22
2022-11-02T02:27:30.882Z,101845.28
2022-11-02T02:30:10.433Z,101843.88
2022-11-02T02:32:46.382Z,101842.75
2022-11-02T02:35:27.024Z,101847.41
2022-11-02T02:37:59.839Z,101844.16
2022-11-02T02:40:34.816Z,101840.34
2022-11-02T02:43:09.542Z,101844.00
2022-11-02T02:45:45.375Z,101795.19
2022-11-02T02:48:19.538Z,101833.81
2022-11-02T02:50:50.705Z,101837.03
2022-11-02T02:53:26.289Z,101831.09
2022-11-02T02:55:55.171Z,101834.22
2022-11-02T02:58:28.028Z,101836.59
2022-11-02T03:00:58.941Z,101832.06
2022-11-02T03:03:31.253Z,101789.72
2022-11-02T03:06:09.169Z,101831.59
2022-11-02T03:08:42.210Z,101836.78
2022-11-02T03:11:15.194Z,101845.25
2022-11-02T03:14:07.929Z,101841.03
2022-11-02T03:17:05.383Z,101831.56
2022-11-02T03:19:43.995Z,101836.34
2022-11-02T03:22:22.826Z,101833.47
2022-11-02T03:25:00.400Z,101836.41
2022-11-02T03:27:38.660Z,101838.38
2022-11-02T03:30:11.329Z,101836.81
2022-11-02T03:32:49.941Z,101683.81
2022-11-02T03:35:22.757Z,101807.16
2022-11-02T03:37:57.569Z,101843.28
2022-11-02T03:40:30.645Z,101855.66
2022-11-02T03:43:01.951Z,101855.59
2022-11-02T03:45:37.075Z,101849.66
2022-11-02T03:48:10.081Z,101852.16
2022-11-02T03:50:43.316Z,101850.97
2022-11-02T03:53:16.482Z,101852.75
2022-11-02T03:55:52.165Z,101863.19
2022-11-02T03:58:21.128Z,101855.44
2022-11-02T04:00:53.056Z,101854.59
2022-11-02T04:03:25.524Z,101862.50
2022-11-02T04:05:55.454Z,101863.88
2022-11-02T04:08:35.516Z,101860.31
2022-11-02T04:11:25.168Z,101866.94
2022-11-02T04:14:13.171Z,101877.31
2022-11-02T04:16:43.750Z,101878.28
2022-11-02T04:19:30.001Z,101877.44
2022-11-02T04:22:22.052Z,101882.06
2022-11-02T04:25:12.619Z,101884.25
2022-11-02T04:27:42.562Z,101883.56
2022-11-02T04:30:12.887Z,101881.00
2022-11-02T04:32:59.551Z,101886.50
2022-11-02T04:35:32.939Z,101886.13
2022-11-02T04:38:19.141Z,101880.78
2022-11-02T04:40:47.469Z,101876.41
2022-11-02T04:43:15.860Z,101879.69
2022-11-02T04:45:44.440Z,101884.31
2022-11-02T04:48:12.955Z,101879.94
2022-11-02T04:50:42.696Z,101883.59
2022-11-02T04:53:10.948Z,101889.31
2022-11-02T04:55:41.019Z,101877.16
2022-11-02T04:58:09.270Z,101882.50
2022-11-02T05:00:38.181Z,101885.56
2022-11-02T05:03:12.326Z,101882.44
2022-11-02T05:05:43.716Z,101879.75
2022-11-02T05:08:12.550Z,101886.34
2022-11-02T05:10:40.837Z,101885.72
2022-11-02T05:13:11.789Z,101888.53
2022-11-02T05:15:40.379Z,101887.81
2022-11-02T05:18:11.631Z,101894.13
2022-11-02T05:20:43.580Z,101905.94
2022-11-02T05:23:11.911Z,101903.41
2022-11-02T05:25:40.293Z,101902.19
2022-11-02T05:28:08.821Z,101910.22
2022-11-02T05:30:37.258Z,101895.34
2022-11-02T05:33:05.849Z,101897.19
2022-11-02T05:35:34.393Z,101895.59
2022-11-02T05:38:04.165Z,101897.56
2022-11-02T05:40:33.859Z,101907.53
2022-11-02T05:43:03.198Z,101899.66
2022-11-02T05:45:32.231Z,101901.09
2022-11-02T05:48:02.437Z,101900.00
2022-11-02T05:50:30.813Z,101900.00
2022-11-02T05:53:01.024Z,101898.03
2022-11-02T05:55:30.784Z,101895.97
2022-11-02T05:57:59.005Z,101899.50
2022-11-02T06:00:27.248Z,101898.78
2022-11-02T06:02:58.975Z,101901.31
2022-11-02T06:05:28.295Z,101897.78
2022-11-02T06:07:59.829Z,101901.69
2022-11-02T06:10:28.736Z,101899.50
2022-11-02T06:12:59.707Z,101908.03
2022-11-02T06:15:28.732Z,101909.00
2022-11-02T06:17:56.971Z,101902.19
2022-11-02T06:20:25.460Z,101913.25
2022-11-02T06:22:53.727Z,101919.47
2022-11-02T06:25:22.070Z,101926.78
2022-11-02T06:27:55.237Z,101925.06
2022-11-02T06:30:27.444Z,101926.78
2022-11-02T06:32:55.867Z,101929.34
2022-11-02T06:35:24.480Z,101935.41
2022-11-02T06:37:52.823Z,101939.81
2022-11-02T06:40:22.781Z,101936.63
2022-11-02T06:43:15.301Z,101950.84
2022-11-02T06:45:46.852Z,101949.13
2022-11-02T06:48:15.301Z,101950.72
2022-11-02T06:50:43.642Z,101945.84
2022-11-02T06:53:11.944Z,101957.41
2022-11-02T06:55:40.413Z,101953.09
2022-11-02T06:58:08.710Z,101966.63
2022-11-02T07:00:37.041Z,101965.50
2022-11-02T07:03:08.769Z,101970.94
2022-11-02T07:05:37.773Z,101965.78
2022-11-02T07:08:06.261Z,101971.38
2022-11-02T07:10:36.181Z,101976.06
2022-11-02T07:13:04.646Z,101978.38
2022-11-02T07:15:33.048Z,101977.13
2022-11-02T07:18:01.291Z,101969.44
2022-11-02T07:20:31.550Z,101975.69
2022-11-02T07:23:01.947Z,101977.41
2022-11-02T07:25:32.273Z,101983.38
2022-11-02T07:28:01.264Z,101978.16
2022-11-02T07:30:30.540Z,101982.06
2022-11-02T07:32:59.105Z,101988.34
2022-11-02T07:35:27.783Z,101990.94
2022-11-02T07:37:58.622Z,101989.97
2022-11-02T07:40:28.385Z,101989.91
2022-11-02T07:42:56.884Z,101998.06
2022-11-02T07:45:50.908Z,101991.31
2022-11-02T07:48:23.132Z,101995.22
2022-11-02T07:50:51.339Z,101996.84
2022-11-02T07:53:22.040Z,102002.00
2022-11-02T07:55:50.285Z,102000.19
2022-11-02T07:58:18.661Z,102003.75
2022-11-02T08:00:47.044Z,102010.28
2022-11-02T08:03:15.852Z,102009.75
2022-11-02T08:05:44.432Z,102011.22
2022-11-02T08:08:15.256Z,102016.63
2022-11-02T08:10:46.712Z,102010.53
2022-11-02T08:13:17.588Z,102011.59
2022-11-02T08:15:46.313Z,101966.06
2022-11-02T08:18:16.912Z,102009.91
2022-11-02T08:20:46.016Z,102005.03
2022-11-02T08:23:15.690Z,102002.53
2022-11-02T08:25:46.411Z,102005.25
2022-11-02T08:28:17.085Z,102001.53
2022-11-02T08:30:45.343Z,102007.09
2022-11-02T08:33:16.282Z,102004.50
2022-11-02T08:35:46.080Z,102008.25
2022-11-02T08:38:14.847Z,102014.31
2022-11-02T08:40:43.373Z,101970.25
2022-11-02T08:43:15.224Z,102011.44
2022-11-02T08:48:33.961Z,101998.03
2022-11-02T08:51:02.864Z,102005.13
2022-11-02T08:53:31.384Z,101996.16
2022-11-02T08:55:59.632Z,101990.91
2022-11-02T08:58:29.446Z,101999.72
2022-11-02T09:00:58.085Z,101940.38
2022-11-02T09:03:27.445Z,101993.53
2022-11-02T09:05:59.913Z,101984.03
2022-11-02T09:08:29.189Z,101984.34
2022-11-02T09:11:01.117Z,101979.78
2022-11-02T09:13:31.216Z,101980.47
2022-11-02T09:16:01.238Z,101982.00
2022-11-02T09:18:29.903Z,101962.72
2022-11-02T09:20:58.395Z,101964.31
2022-11-02T09:23:27.657Z,101967.53
2022-11-02T09:25:55.886Z,101964.66
2022-11-02T09:28:24.255Z,101969.59
2022-11-02T09:30:53.980Z,101970.28
2022-11-02T09:33:22.412Z,101978.41
2022-11-02T09:35:51.220Z,101973.69
2022-11-02T09:38:19.687Z,101967.59
2022-11-02T09:40:54.796Z,101962.53
2022-11-02T09:43:37.845Z,101961.38
2022-11-02T09:46:11.043Z,101960.19
2022-11-02T09:48:43.152Z,101963.44
2022-11-02T09:51:14.868Z,101956.16
2022-11-02T09:53:54.368Z,101958.88
2022-11-02T09:56:22.700Z,101965.78
2022-11-02T09:58:58.950Z,101955.81
2022-11-02T10:01:41.024Z,101961.22
2022-11-02T10:04:34.067Z,101961.22
2022-11-02T10:07:10.548Z,101952.41
2022-11-02T10:09:50.814Z,101953.41
2022-11-02T10:12:27.036Z,101954.97
2022-11-02T10:15:03.513Z,101958.50
2022-11-02T10:17:37.668Z,101948.91
2022-11-02T10:20:17.942Z,101950.44
2022-11-02T10:22:48.604Z,101947.25
2022-11-02T10:25:18.216Z,101947.25
2022-11-02T10:27:51.456Z,101944.56
2022-11-02T10:30:21.252Z,101924.75
2022-11-02T10:32:54.015Z,101942.75
2022-11-02T10:35:41.199Z,101947.63
2022-11-02T10:38:31.317Z,101943.75
2022-11-02T10:41:16.334Z,101931.06
2022-11-02T10:44:04.556Z,101923.13
2022-11-02T10:46:50.354Z,101930.91
2022-11-02T10:49:42.887Z,101921.97
2022-11-02T10:52:15.212Z,101922.13
2022-11-02T10:54:43.651Z,101913.31
2022-11-02T10:57:14.429Z,101913.19
2022-11-02T10:59:43.002Z,101862.53
2022-11-02T11:02:14.852Z,101903.53
2022-11-02T11:04:44.889Z,101894.72
2022-11-02T11:07:17.955Z,101895.91
2022-11-02T11:09:53.024Z,101892.34
2022-11-02T11:12:25.799Z,101889.13
2022-11-02T11:20:39.595Z,101873.81
2022-11-02T11:23:20.516Z,101870.59
2022-11-02T11:25:58.952Z,101857.38
2022-11-02T11:28:31.032Z,101853.09
2022-11-02T11:31:09.966Z,101855.09
2022-11-02T11:33:48.236Z,101821.28
2022-11-02T11:36:31.647Z,101850.53
2022-11-02T11:39:01.717Z,101851.19
2022-11-02T11:41:31.205Z,101850.53
2022-11-02T11:43:59.931Z,101842.75
2022-11-02T11:46:41.425Z,101843.06
2022-11-02T11:49:27.495Z,101838.78
2022-11-02T11:52:05.989Z,101823.72
2022-11-02T11:54:35.133Z,101827.03
2022-11-02T11:57:24.992Z,101796.44
2022-11-02T11:59:55.516Z,101821.75
2022-11-02T12:02:25.654Z,101820.38
2022-11-02T12:05:01.438Z,101784.38
2022-11-02T12:08:08.297Z,101804.75
2022-11-02T12:10:56.714Z,101806.63
2022-11-02T12:13:53.183Z,101804.28
2022-11-02T12:16:31.185Z,101794.09
2022-11-02T12:19:14.784Z,101792.41
2022-11-02T12:21:55.330Z,101794.41
2022-11-02T12:24:50.457Z,101791.31
2022-11-02T12:27:33.875Z,101777.41
2022-11-02T12:30:12.679Z,101774.28
2022-11-02T12:32:59.044Z,101777.69
2022-11-02T12:35:47.492Z,101767.13
2022-11-02T12:38:35.533Z,101761.41
2022-11-02T12:41:06.153Z,101723.56
2022-11-02T12:43:44.022Z,101751.63
2022-11-02T12:46:26.429Z,101755.50
2022-11-02T12:49:20.906Z,101737.50
2022-11-02T12:51:59.188Z,101743.78
2022-11-02T12:54:39.081Z,101737.78
2022-11-02T12:57:14.422Z,101696.19
2022-11-02T12:59:45.937Z,101728.72
2022-11-02T13:02:19.830Z,101731.63
2022-11-02T13:04:52.730Z,101723.13
2022-11-02T13:07:27.877Z,101717.88
2022-11-02T13:10:02.205Z,101710.75
2022-11-02T13:12:36.609Z,101701.66
2022-11-02T13:15:11.931Z,101707.38
2022-11-02T13:17:44.992Z,101704.84
2022-11-02T13:20:18.566Z,101699.78
2022-11-02T13:22:50.342Z,101695.38
2022-11-02T13:25:22.438Z,101662.78
2022-11-02T13:27:55.189Z,101692.28
2022-11-02T13:30:25.975Z,101691.25
2022-11-02T13:32:59.959Z,101688.38
2022-11-02T13:35:32.349Z,101686.50
2022-11-02T13:38:06.534Z,101685.00
2022-11-02T13:40:39.981Z,101680.78
2022-11-02T13:43:38.196Z,101679.75
2022-11-02T13:46:20.787Z,101657.78
2022-11-02T13:49:00.742Z,101654.94
2022-11-02T13:51:37.936Z,101663.94
2022-11-02T13:54:14.189Z,101658.97
2022-11-02T13:56:43.934Z,101654.41
2022-11-02T13:59:22.490Z,101650.66
2022-11-02T14:01:54.343Z,101652.16
2022-11-02T14:04:23.724Z,101646.91
2022-11-02T14:06:56.624Z,101652.34
2022-11-02T14:09:30.312Z,101651.31
2022-11-02T14:12:41.412Z,101652.88
2022-11-02T14:15:38.677Z,101658.69
2022-11-02T14:18:17.009Z,101649.44
2022-11-02T14:20:47.771Z,101651.31
2022-11-02T14:23:36.414Z,101650.47
2022-11-02T14:26:04.882Z,101646.06
2022-11-02T14:28:35.363Z,101656.09
2022-11-02T14:31:32.599Z,101647.28
2022-11-02T14:34:22.349Z,101641.19
2022-11-02T14:37:05.527Z,101648.31
2022-11-02T14:39:46.620Z,101644.09
2022-11-02T14:42:30.772Z,101617.56
2022-11-02T14:45:13.532Z,101635.47
2022-11-02T14:47:42.967Z,101519.34
2022-11-02T14:50:19.342Z,101642.47
2022-11-02T14:53:03.426Z,101630.13
2022-11-02T14:55:34.882Z,101632.53
2022-11-02T14:58:10.918Z,101630.88
2022-11-02T15:00:56.018Z,101628.91
2022-11-02T15:03:33.963Z,101630.47
2022-11-02T15:06:06.479Z,101630.66
2022-11-02T15:08:37.207Z,101631.00
2022-11-02T15:11:48.279Z,101628.00
2022-11-02T15:14:55.805Z,101629.13
2022-11-02T15:17:52.603Z,101625.94
2022-11-02T15:20:32.242Z,101627.31
2022-11-02T15:23:24.077Z,101624.13
2022-11-02T15:26:00.000Z,101618.53
2022-11-02T15:28:33.654Z,101614.97
2022-11-02T15:31:07.769Z,101619.06
2022-11-02T15:33:39.705Z,101618.97
2022-11-02T15:36:14.390Z,101629.50
2022-11-02T15:38:49.685Z,101632.09
2022-11-02T15:41:26.933Z,101622.97
2022-11-02T15:44:27.476Z,101610.34
2022-11-02T15:47:05.484Z,101606.19
2022-11-02T15:49:56.956Z,101608.75
2022-11-02T15:53:16.413Z,101608.31
2022-11-02T15:55:52.121Z,101605.16
2022-11-02T15:58:30.779Z,101605.47
2022-11-02T16:01:15.156Z,101576.84
2022-11-02T16:03:46.722Z,101615.19
2022-11-02T16:06:15.326Z,101610.47
2022-11-02T16:08:44.211Z,101613.88
2022-11-02T16:11:17.564Z,101612.88
2022-11-02T16:14:08.123Z,101618.34
2022-11-02T16:16:36.148Z,101611.59
2022-11-02T16:19:04.658Z,101617.84
2022-11-02T16:21:33.477Z,101619.06
2022-11-02T16:24:02.296Z,101615.69
2022-11-02T16:26:31.986Z,101617.38
2022-11-02T16:29:01.558Z,101599.97
2022-11-02T16:31:32.181Z,101621.03
2022-11-02T16:34:02.354Z,101613.66
2022-11-02T16:36:32.667Z,101592.88
2022-11-02T16:39:03.682Z,101612.59
2022-11-02T16:41:35.135Z,101622.53
2022-11-02T16:44:10.020Z,101609.03
2022-11-02T16:46:43.577Z,101603.84
2022-11-02T16:49:18.577Z,101611.88
2022-11-02T16:51:52.624Z,101620.78
2022-11-02T16:54:41.461Z,101622.72
2022-11-02T16:57:17.948Z,101628.69
2022-11-02T16:59:52.831Z,101634.69
2022-11-02T17:02:35.055Z,101657.56
2022-11-02T17:05:06.620Z,101633.59
2022-11-02T17:07:41.661Z,101639.19
2022-11-02T17:10:23.985Z,101507.81
2022-11-02T17:13:00.877Z,101641.25
2022-11-02T17:15:33.280Z,101638.13
2022-11-02T17:18:28.651Z,101609.78
2022-11-02T17:21:17.076Z,101641.09
2022-11-02T17:23:47.265Z,101646.56
2022-11-02T17:26:36.214Z,101651.47
2022-11-02T17:29:32.268Z,101645.28
2022-11-02T17:32:01.975Z,101656.63
2022-11-02T17:34:31.710Z,101655.66
2022-11-02T17:37:00.892Z,101652.16
2022-11-02T17:39:29.450Z,101649.22
2022-11-02T17:42:16.721Z,101651.81
2022-11-02T17:44:46.725Z,101653.38
2022-11-02T17:47:19.817Z,101600.44
2022-11-02T17:49:48.193Z,101651.41
2022-11-02T17:52:19.302Z,101655.50
2022-11-02T17:54:47.925Z,101664.72
2022-11-02T17:57:17.283Z,101661.31
2022-11-02T17:59:47.199Z,101661.09
2022-11-02T18:02:17.102Z,101621.41
2022-11-02T18:04:45.667Z,101667.06
2022-11-02T18:07:13.951Z,101674.84
2022-11-02T18:09:42.263Z,101676.13
2022-11-02T18:12:14.706Z,101677.09
2022-11-02T18:14:43.488Z,101660.41
2022-11-02T18:17:13.900Z,101676.38
2022-11-02T18:19:42.169Z,101674.56
2022-11-02T18:22:11.762Z,101681.91
2022-11-02T18:24:40.216Z,101679.34
2022-11-02T18:27:08.650Z,101690.38
2022-11-02T18:29:37.922Z,101687.97
2022-11-02T18:32:06.571Z,101688.06
2022-11-02T18:34:36.987Z,101685.97
2022-11-02T18:37:05.253Z,101678.72
2022-11-02T18:39:35.618Z,101693.66
2022-11-02T18:42:06.301Z,101688.84
2022-11-02T18:44:34.748Z,101691.50
2022-11-02T18:47:03.183Z,101638.56
2022-11-02T18:49:31.496Z,101684.00
2022-11-02T18:52:01.343Z,101684.59
2022-11-02T18:54:29.661Z,101683.63
2022-11-02T18:56:57.845Z,101668.88
2022-11-02T18:59:26.294Z,101677.91
2022-11-02T19:01:55.218Z,101678.81
2022-11-02T19:04:23.698Z,101648.63
2022-11-02T19:07:13.788Z,101680.28
2022-11-02T19:09:46.544Z,101678.97
2022-11-02T19:12:17.870Z,101669.75
2022-11-02T19:14:49.634Z,101666.88
2022-11-02T19:17:19.296Z,101675.50
2022-11-02T19:19:48.589Z,101669.69
2022-11-02T19:22:18.341Z,101667.09
2022-11-02T19:24:48.296Z,101666.81
2022-11-02T19:27:18.447Z,101664.91
2022-11-02T19:29:48.044Z,101666.16
2022-11-02T19:32:16.484Z,101673.88
2022-11-02T19:34:44.746Z,101673.44
2022-11-02T19:37:13.473Z,101671.28
2022-11-02T19:39:41.789Z,101665.19
2022-11-02T19:42:11.704Z,101663.25
2022-11-02T19:44:42.779Z,101670.81
2022-11-02T19:47:11.613Z,101671.06
2022-11-02T19:49:39.839Z,101669.97
2022-11-02T19:52:08.189Z,101663.75
2022-11-02T19:54:36.446Z,101660.03
2022-11-02T19:57:04.961Z,101661.13
2022-11-02T19:59:48.796Z,101660.94
2022-11-02T20:02:18.767Z,101666.94
2022-11-02T20:04:47.797Z,101665.75
2022-11-02T20:07:16.698Z,101665.75
2022-11-02T20:09:45.882Z,101663.19
2022-11-02T20:12:19.605Z,101673.28
2022-11-02T20:14:50.224Z,101674.13
2022-11-02T20:17:31.247Z,101664.66
2022-11-02T20:20:06.740Z,101671.47
2022-11-02T20:22:42.019Z,101671.63
2022-11-02T20:25:17.098Z,101675.84
2022-11-02T20:27:50.641Z,101665.09
2022-11-02T20:30:22.436Z,101666.06
2022-11-02T20:32:56.207Z,101664.50
2022-11-02T20:35:26.710Z,101672.53
2022-11-02T20:37:56.616Z,101661.81
2022-11-02T20:40:25.866Z,101665.47
2022-11-02T20:42:54.123Z,101665.72
2022-11-02T20:45:24.806Z,101667.78
2022-11-02T20:47:54.434Z,101671.81
2022-11-02T20:50:28.928Z,101664.50
2022-11-02T20:52:58.801Z,101673.91
2022-11-02T20:55:28.156Z,101666.38
2022-11-02T20:57:56.775Z,101679.41
2022-11-02T21:00:26.802Z,101679.66
2022-11-02T21:02:59.148Z,101673.94
2022-11-02T21:05:28.929Z,101665.81
2022-11-02T21:07:57.536Z,101667.25
2022-11-02T21:10:25.819Z,101674.56
2022-11-02T21:13:11.171Z,101673.59
2022-11-02T21:15:41.084Z,101670.91
2022-11-02T21:18:12.609Z,101672.97
2022-11-02T21:20:41.785Z,101663.63
2022-11-02T21:23:14.115Z,101667.03
2022-11-02T21:25:42.396Z,101666.91
2022-11-02T21:28:11.027Z,101673.34
2022-11-02T21:30:44.053Z,101664.59
2022-11-02T21:33:12.324Z,101671.88
2022-11-02T21:35:40.656Z,101669.22
2022-11-02T21:38:11.718Z,101663.25
2022-11-02T21:40:42.127Z,101662.66
2022-11-02T21:43:10.363Z,101651.97
2022-11-02T21:46:07.023Z,101657.78
2022-11-02T21:49:05.387Z,101662.06
2022-11-02T21:51:42.008Z,101659.88
2022-11-02T21:54:18.626Z,101659.25
2022-11-02T21:56:53.680Z,101641.03
2022-11-02T21:59:22.106Z,101655.63
2022-11-02T22:01:58.159Z,101649.28
2022-11-02T22:04:29.047Z,101655.16
2022-11-02T22:06:57.727Z,101659.25
2022-11-02T22:09:27.170Z,101656.69
2022-11-02T22:12:10.310Z,101648.66
2022-11-02T22:14:39.524Z,101624.13
2022-11-02T22:17:21.844Z,101646.84
2022-11-02T22:19:51.968Z,101639.06
2022-11-02T22:22:20.252Z,101657.66
2022-11-02T22:24:49.270Z,101654.75
2022-11-02T22:27:17.615Z,101660.09
2022-11-02T22:29:45.897Z,101633.00
2022-11-02T22:32:15.788Z,101651.84
2022-11-02T22:34:44.107Z,101625.22
2022-11-02T22:37:30.657Z,101652.03
2022-11-02T22:39:58.951Z,101609.13
2022-11-02T22:42:28.204Z,101648.25
2022-11-02T22:44:58.603Z,101645.56
2022-11-02T22:47:28.360Z,101646.56
2022-11-02T22:49:58.899Z,101620.28
2022-11-02T22:52:27.434Z,101648.34
2022-11-02T22:54:59.872Z,101596.44
2022-11-02T22:57:28.408Z,101643.47
2022-11-02T23:00:00.140Z,101636.53
2022-11-02T23:02:35.649Z,101641.16
2022-11-02T23:05:04.005Z,101630.84
2022-11-02T23:07:32.468Z,101640.66
2022-11-02T23:10:20.887Z,101642.22
2022-11-02T23:12:48.153Z,101638.97
2022-11-02T23:15:16.705Z,101639.19
2022-11-02T23:17:46.439Z,101642.94
2022-11-02T23:20:13.993Z,101636.00
2022-11-02T23:22:59.498Z,101577.59
2022-11-02T23:25:27.813Z,101647.88
2022-11-02T23:28:14.815Z,101646.06
2022-11-02T23:30:57.700Z,101645.75
2022-11-02T23:33:30.933Z,101644.41
2022-11-02T23:36:13.083Z,101641.00
2022-11-02T23:39:00.114Z,101634.19
2022-11-02T23:41:29.592Z,101633.69
2022-11-02T23:44:11.942Z,101631.75
2022-11-02T23:46:41.600Z,101629.19
2022-11-02T23:49:11.516Z,101626.63
2022-11-02T23:51:57.124Z,101618.63
2022-11-02T23:54:43.069Z,101617.16
2022-11-02T23:57:11.672Z,101622.09
2022-11-02T23:59:40.521Z,101620.38
